Time;durP1;ratioP1;P1;durP2;ratioP2;P2;SDS_P1;SDS_P2;PMS_P1;PMS_P2;Temp;Humidity;BMP_temperature;BMP_pressure;BME280_temperature;BME280_humidity;BME280_pressure;Samples;Min_cycle;Max_cycle;Signal;HPM_P1;HPM_P2
2021/10/16 00:02:00;;;;;;;33.60;19.40;;;;;;;13.47;100.00;99478.00;5070968;28;20036;-21
2021/10/16 00:04:25;;;;;;;35.60;19.90;;;;;;;13.40;100.00;99466.66;5088979;28;20480;-20
2021/10/16 00:06:51;;;;;;;31.08;18.95;;;;;;;13.32;100.00;99469.78;5070755;28;20720;-20
2021/10/16 00:09:16;;;;;;;30.88;16.80;;;;;;;13.26;100.00;99464.38;5088885;28;20044;-19
2021/10/16 00:11:41;;;;;;;31.83;18.08;;;;;;;13.42;100.00;99475.25;5088852;28;20056;-20
2021/10/16 00:14:07;;;;;;;29.85;17.08;;;;;;;13.42;100.00;99459.19;5088742;28;20530;-20
2021/10/16 00:16:32;;;;;;;26.35;15.52;;;;;;;13.45;100.00;99474.78;5088964;28;20032;-19
2021/10/16 00:18:58;;;;;;;23.00;14.75;;;;;;;13.49;100.00;99481.25;5088537;28;20035;-19
2021/10/16 00:21:23;;;;;;;23.80;14.85;;;;;;;13.49;100.00;99475.06;5088662;28;20028;-19
2021/10/16 00:23:49;;;;;;;20.80;13.18;;;;;;;13.46;100.00;99471.00;5088809;28;20487;-20
2021/10/16 00:26:14;;;;;;;25.52;14.02;;;;;;;13.41;100.00;99462.94;5088930;28;20035;-19
2021/10/16 00:28:40;;;;;;;23.70;14.93;;;;;;;13.36;100.00;99468.22;5088740;28;20486;-19
2021/10/16 00:31:05;;;;;;;22.70;14.20;;;;;;;13.39;100.00;99452.47;5088730;28;20036;-20
2021/10/16 00:33:31;;;;;;;21.25;14.05;;;;;;;13.50;100.00;99461.41;5088762;28;20028;-19
2021/10/16 00:35:56;;;;;;;21.05;14.50;;;;;;;13.55;100.00;99468.72;5088846;28;20056;-20
2021/10/16 00:38:22;;;;;;;23.00;14.02;;;;;;;13.53;100.00;99466.28;5088964;28;20028;-19
2021/10/16 00:40:47;;;;;;;18.20;11.95;;;;;;;13.42;100.00;99464.53;5088835;28;20039;-20
2021/10/16 00:55:06;;;;;;;33.63;16.83;;;;;;;12.98;100.00;99408.38;4859380;27;8312061;-20
2021/10/16 00:57:32;;;;;;;29.20;16.80;;;;;;;13.19;100.00;99420.91;5106333;28;20041;-20
2021/10/16 00:59:57;;;;;;;29.88;17.83;;;;;;;13.33;100.00;99424.03;5105347;28;20088;-19
2021/10/16 01:02:23;;;;;;;30.45;17.92;;;;;;;13.36;100.00;99436.09;5106911;28;20509;-20
2021/10/16 01:04:48;;;;;;;28.02;18.27;;;;;;;13.35;100.00;99439.84;5106386;28;20051;-19
2021/10/16 01:07:14;;;;;;;34.90;18.83;;;;;;;13.42;100.00;99448.47;5106773;28;20032;-20
2021/10/16 01:09:43;;;;;;;33.75;20.30;;;;;;;13.41;100.00;99449.56;5105450;28;20084;-19
2021/10/16 01:12:09;;;;;;;33.75;21.17;;;;;;;13.48;100.00;99457.38;5106488;28;20046;-19
2021/10/16 01:14:38;;;;;;;31.77;19.42;;;;;;;13.44;100.00;99457.06;5106683;28;20020;-19
2021/10/16 01:17:03;;;;;;;33.05;20.20;;;;;;;13.48;100.00;99452.00;5088521;28;20024;-19
2021/10/16 01:19:29;;;;;;;37.80;22.15;;;;;;;13.42;100.00;99443.13;5088338;28;20096;-19
2021/10/16 01:21:55;;;;;;;35.22;21.15;;;;;;;13.44;100.00;99441.00;5104994;28;20032;-19
2021/10/16 01:24:20;;;;;;;37.28;19.92;;;;;;;13.60;100.00;99455.34;5087995;28;20562;-19
2021/10/16 01:26:49;;;;;;;38.78;21.17;;;;;;;13.80;100.00;99454.72;5087730;28;20035;-20
2021/10/16 01:29:26;;;;;;;33.83;20.17;;;;;;;13.80;100.00;99454.72;5106206;28;20028;-20
2021/10/16 01:31:52;;;;;;;36.28;21.08;;;;;;;13.89;100.00;99442.47;5105266;28;20060;-20
2021/10/16 01:34:18;;;;;;;31.33;18.88;;;;;;;13.75;100.00;99430.56;5106098;28;20117;-19
2021/10/16 01:36:47;;;;;;;32.33;19.30;;;;;;;13.66;100.00;99430.22;5106005;28;20126;-19
2021/10/16 01:39:13;;;;;;;32.97;18.95;;;;;;;13.78;100.00;99440.78;5106144;28;20119;-19
2021/10/16 01:41:39;;;;;;;32.42;19.20;;;;;;;13.93;100.00;99448.13;5106214;28;20060;-19
2021/10/16 01:44:05;;;;;;;36.28;19.90;;;;;;;13.85;100.00;99442.19;5105898;28;20027;-19
2021/10/16 01:46:31;;;;;;;32.85;18.85;;;;;;;13.91;100.00;99434.19;5104813;28;20576;-19
2021/10/16 01:48:56;;;;;;;32.95;18.50;;;;;;;13.85;100.00;99426.09;5105725;28;20027;-20
2021/10/16 01:51:22;;;;;;;30.73;17.83;;;;;;;13.79;100.00;99420.94;5104832;28;20043;-19
2021/10/16 01:53:47;;;;;;;30.65;17.17;;;;;;;13.68;100.00;99419.25;5104053;28;20486;-19
2021/10/16 01:56:12;;;;;;;27.08;15.75;;;;;;;13.77;100.00;99455.22;5118723;28;20055;-20
2021/10/16 01:58:38;;;;;;;31.23;17.55;;;;;;;13.79;100.00;99447.75;5126031;28;20031;-20
2021/10/16 02:01:03;;;;;;;31.55;18.00;;;;;;;13.68;100.00;99452.22;5125937;28;20509;-20
2021/10/16 02:03:29;;;;;;;28.40;16.90;;;;;;;13.94;100.00;99436.34;5125866;28;20020;-20
2021/10/16 02:05:54;;;;;;;25.15;15.80;;;;;;;13.83;100.00;99438.97;5113176;28;20035;-20
2021/10/16 02:08:20;;;;;;;18.75;12.27;;;;;;;13.85;100.00;99436.84;5094252;28;20406;-20
2021/10/16 02:10:45;;;;;;;19.40;12.88;;;;;;;14.05;100.00;99443.41;5111973;28;20092;-20
2021/10/16 02:13:11;;;;;;;26.23;13.63;;;;;;;13.90;100.00;99433.38;5112106;28;20030;-19
2021/10/16 02:15:36;;;;;;;31.45;14.18;;;;;;;13.89;100.00;99434.41;5112038;28;20089;-19
2021/10/16 02:18:02;;;;;;;19.02;10.35;;;;;;;13.64;100.00;99425.09;5111823;28;20042;-20
2021/10/16 02:20:27;;;;;;;18.17;10.63;;;;;;;13.68;100.00;99424.63;5112151;28;20039;-20
2021/10/16 02:22:53;;;;;;;16.60;9.05;;;;;;;13.70;100.00;99422.50;5111673;28;20482;-20
2021/10/16 02:25:18;;;;;;;15.32;9.07;;;;;;;13.81;100.00;99424.19;5112113;28;20028;-19
2021/10/16 02:27:44;;;;;;;13.48;8.63;;;;;;;13.76;100.00;99426.81;5112030;28;20030;-20
2021/10/16 02:30:09;;;;;;;16.02;10.32;;;;;;;13.82;100.00;99439.22;5111858;28;20464;-19
2021/10/16 02:32:35;;;;;;;18.77;11.68;;;;;;;13.82;100.00;99415.09;5111632;28;20062;-20
2021/10/16 02:35:01;;;;;;;14.32;9.45;;;;;;;13.83;100.00;99401.44;5111528;28;20028;-19
2021/10/16 02:37:26;;;;;;;16.10;9.55;;;;;;;13.88;100.00;99392.63;5111726;28;20030;-20
2021/10/16 02:39:52;;;;;;;16.45;9.85;;;;;;;13.80;100.00;99414.53;5111542;28;20027;-20
2021/10/16 02:42:17;;;;;;;15.82;10.10;;;;;;;13.73;100.00;99416.59;5112217;28;20039;-20
2021/10/16 02:44:43;;;;;;;16.00;10.20;;;;;;;13.70;100.00;99401.06;5093319;28;20035;-19
2021/10/16 02:47:08;;;;;;;16.60;10.23;;;;;;;14.00;100.00;99398.59;5093159;28;20039;-20
2021/10/16 02:49:34;;;;;;;18.70;11.75;;;;;;;14.15;100.00;99403.25;5093050;28;20035;-19
2021/10/16 02:51:59;;;;;;;23.33;16.52;;;;;;;13.87;100.00;99404.38;5111733;28;20517;-19
2021/10/16 02:54:25;;;;;;;21.38;15.45;;;;;;;13.85;100.00;99411.88;5110885;28;20043;-19
2021/10/16 02:56:50;;;;;;;24.50;16.80;;;;;;;13.65;100.00;99410.66;5111022;28;20060;-19
2021/10/16 02:59:15;;;;;;;24.42;17.27;;;;;;;13.73;100.00;99428.16;5111598;28;20522;-19
2021/10/16 03:01:41;;;;;;;24.83;15.50;;;;;;;13.73;100.00;99432.69;5111289;28;20107;-20
2021/10/16 03:04:06;;;;;;;23.02;15.65;;;;;;;13.69;100.00;99420.84;5111024;28;20355;-19
2021/10/16 03:06:32;;;;;;;23.48;15.05;;;;;;;13.80;100.00;99425.25;5111158;28;20031;-20
2021/10/16 03:08:57;;;;;;;21.90;15.25;;;;;;;13.85;100.00;99442.19;5110871;28;20032;-19
2021/10/16 03:11:23;;;;;;;20.77;15.15;;;;;;;13.93;100.00;99430.16;5111143;28;20784;-20
2021/10/16 03:13:48;;;;;;;22.05;15.85;;;;;;;13.88;100.00;99445.44;5110884;28;20019;-22
2021/10/16 03:16:16;;;;;;;26.70;18.85;;;;;;;14.02;100.00;99441.25;5110079;28;20410;-20
2021/10/16 03:18:42;;;;;;;25.70;17.98;;;;;;;14.41;100.00;99459.75;5110606;28;20027;-21
2021/10/16 03:21:07;;;;;;;30.63;21.90;;;;;;;14.47;100.00;99448.78;5092651;28;20043;-20
2021/10/16 03:23:33;;;;;;;28.85;19.05;;;;;;;14.21;100.00;99444.31;5110875;28;20034;-20
2021/10/16 03:25:58;;;;;;;29.88;19.92;;;;;;;14.21;100.00;99433.59;5110777;28;20042;-19
2021/10/16 03:28:24;;;;;;;33.35;21.90;;;;;;;14.34;100.00;99449.22;5110755;28;20027;-20
2021/10/16 03:30:49;;;;;;;31.88;21.25;;;;;;;14.32;100.00;99448.66;5110442;28;20023;-21
2021/10/16 03:33:15;;;;;;;26.45;19.23;;;;;;;14.17;100.00;99451.28;5110445;28;20105;-20
2021/10/16 03:35:41;;;;;;;28.20;20.27;;;;;;;14.15;100.00;99445.34;5110451;28;20028;-20
2021/10/16 03:38:06;;;;;;;33.70;22.02;;;;;;;14.27;100.00;99443.28;5092184;28;20027;-20
2021/10/16 03:40:32;;;;;;;30.83;21.75;;;;;;;14.20;100.00;99450.72;5110603;28;20191;-21
2021/10/16 03:42:57;;;;;;;36.40;22.50;;;;;;;14.19;100.00;99446.44;5091951;28;20028;-20
2021/10/16 03:45:23;;;;;;;33.63;22.80;;;;;;;14.46;100.00;99438.31;5110146;28;20481;-21
2021/10/16 03:47:48;;;;;;;37.08;24.30;;;;;;;14.41;100.00;99436.41;5110111;28;20032;-20
2021/10/16 03:50:14;;;;;;;37.72;23.77;;;;;;;14.44;100.00;99443.13;5110530;28;20031;-20
2021/10/16 03:52:39;;;;;;;38.53;24.98;;;;;;;14.60;100.00;99436.00;5109994;28;20031;-21
2021/10/16 03:55:06;;;;;;;40.28;25.15;;;;;;;14.68;100.00;99438.19;5110287;28;20089;-21
2021/10/16 03:57:31;;;;;;;44.40;26.10;;;;;;;14.72;99.77;99431.22;5110593;28;20039;-20
2021/10/16 03:59:57;;;;;;;37.42;24.08;;;;;;;14.89;98.75;99438.28;5110411;28;20043;-19
2021/10/16 04:02:25;;;;;;;37.15;24.05;;;;;;;14.93;98.07;99434.00;5109851;28;20031;-20
2021/10/16 04:04:50;;;;;;;29.83;20.13;;;;;;;14.50;100.00;99425.19;5109836;28;20134;-20
2021/10/16 04:07:16;;;;;;;34.25;21.70;;;;;;;14.54;100.00;99426.28;5109964;28;20494;-20
2021/10/16 04:09:41;;;;;;;28.70;20.42;;;;;;;14.66;100.00;99419.66;5109895;28;20043;-20
2021/10/16 04:12:07;;;;;;;34.85;22.35;;;;;;;14.93;98.45;99421.38;5109917;28;20450;-19
2021/10/16 04:14:32;;;;;;;31.60;21.25;;;;;;;14.98;97.08;99415.22;5109982;28;20035;-20
2021/10/16 04:16:58;;;;;;;33.95;22.20;;;;;;;14.75;98.28;99422.66;5109307;28;20073;-21
2021/10/16 04:19:23;;;;;;;34.58;23.70;;;;;;;14.77;98.53;99415.16;5109639;28;20058;-20
2021/10/16 04:21:49;;;;;;;32.17;21.38;;;;;;;14.80;97.84;99408.44;5109871;28;20452;-19
2021/10/16 04:24:14;;;;;;;29.48;20.42;;;;;;;14.99;97.19;99416.81;5109824;28;20023;-20
2021/10/16 04:26:40;;;;;;;29.67;21.48;;;;;;;15.32;94.88;99412.06;5109424;28;20035;-20
2021/10/16 04:29:05;;;;;;;33.53;21.73;;;;;;;15.43;94.11;99416.41;5109295;28;20085;-20
2021/10/16 04:31:30;;;;;;;30.63;20.83;;;;;;;15.10;95.23;99414.97;5109582;28;20403;-20
2021/10/16 04:33:56;;;;;;;29.40;20.17;;;;;;;14.92;96.43;99411.72;5109750;28;20027;-21
2021/10/16 04:36:21;;;;;;;27.23;18.20;;;;;;;14.76;97.35;99397.44;5109593;28;20074;-20
2021/10/16 04:38:49;;;;;;;24.33;18.42;;;;;;;15.03;96.21;99407.97;5109333;28;20038;-20
2021/10/16 04:41:15;;;;;;;23.43;17.33;;;;;;;14.99;95.82;99400.72;5109660;28;20024;-20
2021/10/16 04:43:44;;;;;;;20.70;15.43;;;;;;;14.80;97.25;99403.09;5109416;28;20027;-19
2021/10/16 04:46:09;;;;;;;22.55;15.43;;;;;;;14.93;96.07;99389.16;5075138;28;20062;-20
2021/10/16 04:48:43;;;;;;;23.55;15.73;;;;;;;15.20;95.24;99418.50;5109394;28;20066;-20
2021/10/16 04:51:10;;;;;;;24.13;16.75;;;;;;;15.17;95.15;99413.66;5091164;28;20035;-20
2021/10/16 04:53:35;;;;;;;23.60;16.00;;;;;;;15.18;95.06;99409.91;5109201;28;20171;-20
2021/10/16 04:56:01;;;;;;;22.80;15.93;;;;;;;15.15;95.25;99415.81;5091010;28;20051;-20
2021/10/16 04:58:26;;;;;;;21.38;14.70;;;;;;;15.24;94.76;99426.81;5109328;28;20031;-21
2021/10/16 05:00:52;;;;;;;23.15;17.50;;;;;;;15.07;93.91;99432.44;5109348;28;20707;-20
2021/10/16 05:03:17;;;;;;;22.98;16.08;;;;;;;14.57;93.27;99428.47;5109286;28;20028;-20
2021/10/16 05:05:43;;;;;;;22.40;14.70;;;;;;;14.10;94.49;99442.63;5109394;28;20402;-20
2021/10/16 05:08:08;;;;;;;21.20;14.65;;;;;;;13.80;95.59;99438.66;5109071;28;20028;-19
2021/10/16 05:10:34;;;;;;;20.63;14.50;;;;;;;13.59;96.27;99433.13;5109369;28;20070;-19
2021/10/16 05:13:00;;;;;;;19.92;13.65;;;;;;;13.34;96.81;99439.03;5108978;28;20042;-20
2021/10/16 05:15:25;;;;;;;22.25;14.93;;;;;;;13.34;98.39;99452.44;5109358;28;20036;-20
2021/10/16 05:17:51;;;;;;;23.88;14.75;;;;;;;13.34;98.83;99462.31;5109023;28;20024;-20
2021/10/16 05:20:16;;;;;;;25.67;16.27;;;;;;;13.54;97.46;99462.53;5091030;28;20097;-20
2021/10/16 05:22:42;;;;;;;24.23;15.50;;;;;;;13.70;97.17;99478.75;5108863;28;20436;-20
2021/10/16 05:25:07;;;;;;;29.42;19.98;;;;;;;13.62;96.31;99480.81;5109252;28;20047;-20
2021/10/16 05:27:33;;;;;;;28.13;18.30;;;;;;;13.46;97.12;99482.56;5108894;28;20056;-20
2021/10/16 05:29:58;;;;;;;23.35;15.70;;;;;;;13.16;98.94;99472.28;5108836;28;20054;-20
2021/10/16 05:32:24;;;;;;;22.67;14.20;;;;;;;13.20;99.13;99484.13;5108875;28;20031;-21
2021/10/16 05:34:49;;;;;;;18.80;11.93;;;;;;;13.22;97.60;99492.69;5108807;28;20480;-19
2021/10/16 05:37:15;;;;;;;19.00;12.48;;;;;;;13.00;98.17;99486.53;5109136;28;20068;-20
2021/10/16 05:39:41;;;;;;;20.25;13.63;;;;;;;12.89;98.71;99492.81;5109535;28;20383;-19
2021/10/16 05:42:07;;;;;;;19.92;13.32;;;;;;;12.79;99.33;99507.69;5112953;28;20027;-20
2021/10/16 05:44:33;;;;;;;23.05;16.17;;;;;;;13.01;98.86;99501.53;5112422;28;20023;-19
2021/10/16 05:46:59;;;;;;;19.90;13.65;;;;;;;12.91;98.11;99506.75;5112415;28;20976;-19
2021/10/16 05:49:24;;;;;;;25.27;18.35;;;;;;;12.95;97.42;99521.25;5112433;28;20035;-20
2021/10/16 05:53:10;;;;;;;25.03;16.70;;;;;;;12.82;97.43;99528.59;4862646;27;8199343;-20
2021/10/16 05:55:36;;;;;;;24.58;15.90;;;;;;;12.76;97.98;99526.09;5105598;28;20035;-20
2021/10/16 05:58:01;;;;;;;22.05;13.80;;;;;;;12.74;97.71;99545.06;5106377;28;20109;-20
2021/10/16 06:00:26;;;;;;;22.42;14.60;;;;;;;12.66;97.70;99540.13;5107115;28;20039;-20
2021/10/16 06:02:52;;;;;;;23.50;15.38;;;;;;;12.75;97.65;99533.31;5106510;28;20020;-20
2021/10/16 06:05:18;;;;;;;21.33;14.52;;;;;;;12.66;98.04;99550.84;5106831;28;20027;-20
2021/10/16 06:07:43;;;;;;;23.15;13.18;;;;;;;12.72;98.24;99557.88;5106167;28;20031;-21
2021/10/16 06:10:09;;;;;;;20.20;13.02;;;;;;;12.76;97.12;99568.91;5105202;28;20139;-20
2021/10/16 06:12:35;;;;;;;19.55;12.35;;;;;;;12.85;97.51;99565.56;5105048;28;20107;-20
2021/10/16 06:15:00;;;;;;;23.25;15.38;;;;;;;12.89;96.10;99581.94;5106224;28;20036;-20
2021/10/16 06:17:26;;;;;;;23.58;15.40;;;;;;;12.64;96.96;99567.13;5106444;28;20046;-20
2021/10/16 06:19:52;;;;;;;21.02;14.63;;;;;;;12.53;98.07;99569.91;5105011;28;20044;-20
2021/10/16 06:22:18;;;;;;;18.23;13.20;;;;;;;12.48;98.58;99567.13;5106644;28;20814;-20
2021/10/16 06:24:43;;;;;;;15.77;11.68;;;;;;;12.69;97.54;99573.59;5105151;28;20028;-20
2021/10/16 06:27:09;;;;;;;19.75;14.55;;;;;;;12.99;96.50;99579.41;5105896;28;20032;-20
2021/10/16 06:29:34;;;;;;;17.52;13.32;;;;;;;12.77;95.70;99576.69;5106155;28;20479;-20
2021/10/16 06:31:59;;;;;;;13.32;9.65;;;;;;;12.32;97.93;99584.78;5106289;28;20028;-19
2021/10/16 06:34:25;;;;;;;13.00;9.13;;;;;;;12.41;97.06;99576.13;5106039;28;20506;-19
2021/10/16 06:36:50;;;;;;;17.17;12.30;;;;;;;12.45;96.68;99587.97;5105716;28;20077;-20
2021/10/16 06:39:16;;;;;;;9.68;7.38;;;;;;;12.35;96.31;99587.00;5105888;28;20032;-20
2021/10/16 06:41:41;;;;;;;10.30;7.70;;;;;;;12.50;96.68;99594.44;5104454;28;20081;-19
2021/10/16 06:44:07;;;;;;;10.00;5.97;;;;;;;12.63;95.48;99594.13;5105504;28;20028;-20
2021/10/16 06:46:32;;;;;;;6.72;4.75;;;;;;;12.52;94.51;99597.69;5104585;28;20031;-19
2021/10/16 06:48:58;;;;;;;6.78;4.40;;;;;;;12.43;94.23;99592.75;5105470;28;20040;-20
2021/10/16 06:51:23;;;;;;;8.73;4.15;;;;;;;12.12;95.44;99585.28;5105495;28;20470;-20
2021/10/16 06:53:49;;;;;;;6.18;4.03;;;;;;;12.27;96.14;99605.03;5115036;28;20055;-20
2021/10/16 06:56:14;;;;;;;6.20;3.80;;;;;;;12.14;96.38;99607.22;5126168;28;20031;-21
2021/10/16 06:58:40;;;;;;;6.47;3.80;;;;;;;12.25;95.84;99606.34;5126401;28;20032;-20
2021/10/16 07:01:05;;;;;;;6.90;3.58;;;;;;;12.25;95.39;99603.66;5125730;28;20031;-20
2021/10/16 07:03:30;;;;;;;7.53;4.13;;;;;;;12.14;95.79;99588.53;5115726;28;20388;-21
2021/10/16 07:05:56;;;;;;;6.50;4.13;;;;;;;12.13;96.33;99613.59;5112258;28;20032;-21
2021/10/16 07:08:25;;;;;;;11.73;6.43;;;;;;;12.32;96.24;99607.00;5094000;28;20027;-20
2021/10/16 07:10:51;;;;;;;7.05;3.33;;;;;;;12.54;95.05;99614.31;5111717;28;20474;-19
2021/10/16 07:13:17;;;;;;;6.45;3.67;;;;;;;12.50;94.92;99605.94;5112079;28;20027;-20
2021/10/16 07:15:42;;;;;;;6.82;3.20;;;;;;;12.66;94.43;99623.88;5112179;28;20031;-20
2021/10/16 07:18:08;;;;;;;4.55;2.42;;;;;;;12.43;92.65;99622.16;5111911;28;20039;-20
2021/10/16 07:20:33;;;;;;;4.95;2.63;;;;;;;12.14;95.02;99621.41;5111927;28;20031;-20
2021/10/16 07:22:58;;;;;;;6.35;3.47;;;;;;;12.34;96.39;99615.59;5093468;28;20050;-20
2021/10/16 07:25:24;;;;;;;5.68;3.03;;;;;;;12.39;94.32;99626.38;5093843;28;20175;-20
2021/10/16 07:27:51;;;;;;;6.35;3.00;;;;;;;12.33;94.84;99631.88;5111951;28;20031;-20
2021/10/16 07:30:17;;;;;;;7.83;4.30;;;;;;;12.50;95.37;99622.00;5111705;28;20032;-20
2021/10/16 07:32:42;;;;;;;7.93;4.60;;;;;;;12.71;94.46;99625.00;5111625;28;20055;-20
2021/10/16 07:35:08;;;;;;;7.88;4.45;;;;;;;12.65;94.38;99622.25;5111470;28;20471;-20
2021/10/16 07:37:33;;;;;;;14.75;8.45;;;;;;;12.59;95.07;99627.78;5111819;28;20470;-20
2021/10/16 07:39:59;;;;;;;7.60;4.55;;;;;;;12.69;94.69;99638.66;5111949;28;20031;-20
2021/10/16 07:42:24;;;;;;;6.82;4.22;;;;;;;12.68;93.82;99642.34;5112060;28;20028;-20
2021/10/16 07:44:50;;;;;;;6.78;3.72;;;;;;;12.47;94.13;99633.19;5093228;28;20467;-20
2021/10/16 07:47:15;;;;;;;7.20;3.75;;;;;;;12.70;94.48;99642.94;5111343;28;20035;-20
2021/10/16 07:49:41;;;;;;;6.57;3.00;;;;;;;12.60;92.97;99632.06;5111293;28;20043;-19
2021/10/16 07:52:06;;;;;;;6.60;3.20;;;;;;;12.33;94.34;99638.03;5111475;28;20080;-20
2021/10/16 07:54:32;;;;;;;5.82;3.50;;;;;;;12.55;93.30;99656.06;5111595;28;20063;-20
2021/10/16 07:57:01;;;;;;;5.93;3.53;;;;;;;12.66;93.45;99657.84;5111196;28;20032;-20
2021/10/16 07:59:26;;;;;;;7.90;4.47;;;;;;;12.98;93.42;99651.94;5111287;28;20028;-20
2021/10/16 08:01:52;;;;;;;7.05;4.05;;;;;;;13.02;92.57;99661.09;5111050;28;20031;-20
2021/10/16 08:04:17;;;;;;;9.00;4.30;;;;;;;12.92;92.23;99653.72;5092919;28;20501;-20
2021/10/16 08:06:43;;;;;;;7.40;3.97;;;;;;;13.18;91.99;99662.94;5110987;28;20088;-20
2021/10/16 08:09:08;;;;;;;8.15;3.97;;;;;;;13.15;91.70;99666.09;5110966;28;20047;-20
2021/10/16 08:11:35;;;;;;;7.55;4.07;;;;;;;13.06;92.62;99656.88;5092846;28;20022;-19
2021/10/16 08:14:00;;;;;;;8.10;3.80;;;;;;;12.98;90.52;99652.72;5110109;28;20549;-20
2021/10/16 08:16:26;;;;;;;9.52;4.60;;;;;;;12.94;91.15;99666.84;5110742;28;20106;-20
2021/10/16 08:18:51;;;;;;;11.05;5.05;;;;;;;13.02;91.02;99645.84;5110534;28;20027;-20
2021/10/16 08:21:17;;;;;;;8.27;4.80;;;;;;;12.96;91.39;99664.75;5110852;28;20517;-20
2021/10/16 08:23:42;;;;;;;10.90;5.10;;;;;;;13.17;91.00;99663.97;5110820;28;20039;-20
2021/10/16 08:26:08;;;;;;;9.02;5.28;;;;;;;13.27;89.68;99653.41;5110839;28;20444;-20
2021/10/16 08:28:33;;;;;;;9.63;5.50;;;;;;;13.41;89.18;99666.50;5110704;28;20046;-20
2021/10/16 08:31:00;;;;;;;9.52;5.75;;;;;;;13.34;88.76;99665.84;5110705;28;20028;-19
2021/10/16 08:33:25;;;;;;;8.85;4.60;;;;;;;13.13;88.97;99659.38;5110697;28;20031;-19
2021/10/16 08:35:51;;;;;;;8.95;5.38;;;;;;;13.19;90.63;99672.56;5110518;28;20418;-19
2021/10/16 08:38:16;;;;;;;8.98;5.30;;;;;;;13.35;90.00;99664.81;5110334;28;20054;-20
2021/10/16 08:40:42;;;;;;;10.88;5.70;;;;;;;13.42;89.97;99678.81;5092191;28;20027;-20
2021/10/16 08:43:08;;;;;;;7.65;4.97;;;;;;;13.59;89.67;99690.31;5110061;28;20039;-20
2021/10/16 08:45:34;;;;;;;9.70;4.53;;;;;;;13.69;89.76;99684.28;5092337;28;20035;-20
2021/10/16 08:48:01;;;;;;;7.38;4.80;;;;;;;13.90;88.76;99692.56;5110380;28;20031;-20
2021/10/16 08:50:26;;;;;;;8.50;4.60;;;;;;;14.04;88.08;99686.56;5091887;28;20027;-19
2021/10/16 08:52:52;;;;;;;8.55;5.07;;;;;;;14.11;87.92;99690.94;5091343;28;20043;-20
2021/10/16 08:55:17;;;;;;;8.68;4.78;;;;;;;13.99;87.65;99694.53;5075159;28;20026;-20
2021/10/16 08:57:43;;;;;;;8.48;4.57;;;;;;;14.00;86.83;99695.38;5110198;28;20035;-20
2021/10/16 09:00:36;;;;;;;9.38;5.03;;;;;;;14.14;87.33;99695.78;5110369;28;20088;-20
2021/10/16 09:03:15;;;;;;;8.82;4.50;;;;;;;13.83;87.33;99679.34;5109875;28;20047;-20
2021/10/16 09:05:41;;;;;;;9.48;4.85;;;;;;;13.79;87.49;99702.34;5091796;28;20058;-19
2021/10/16 09:08:06;;;;;;;8.35;5.10;;;;;;;13.84;88.43;99699.75;5109847;28;20036;-20
2021/10/16 09:10:32;;;;;;;7.95;4.50;;;;;;;13.94;87.12;99707.09;5110149;28;20089;-20
2021/10/16 09:12:57;;;;;;;9.35;4.60;;;;;;;13.94;87.03;99707.91;5109912;28;20031;-19
2021/10/16 09:15:23;;;;;;;8.82;4.70;;;;;;;13.91;86.40;99697.66;5109747;28;20047;-20
2021/10/16 09:18:02;;;;;;;9.70;5.20;;;;;;;13.75;87.07;99706.56;5091464;28;20035;-20
2021/10/16 09:20:37;;;;;;;11.20;5.18;;;;;;;13.84;87.62;99719.31;5109783;28;20031;-19
2021/10/16 09:23:07;;;;;;;10.32;5.47;;;;;;;13.70;89.25;99706.53;5109326;28;20150;-19
2021/10/16 09:25:32;;;;;;;11.25;6.35;;;;;;;13.83;88.31;99706.16;5109217;28;20024;-20
2021/10/16 09:28:17;;;;;;;22.00;11.20;;;;;;;14.21;88.39;99715.19;5091718;28;20077;-20
2021/10/16 09:30:46;;;;;;;12.43;5.93;;;;;;;13.86;87.51;99708.34;5091307;28;20076;-20
2021/10/16 09:33:12;;;;;;;11.05;5.43;;;;;;;14.16;87.33;99721.31;5091359;28;20426;-20
2021/10/16 09:35:37;;;;;;;9.75;5.75;;;;;;;14.31;86.82;99734.06;5109590;28;20498;-20
2021/10/16 09:38:03;;;;;;;10.82;5.50;;;;;;;14.28;88.12;99723.81;5109578;28;20027;-19
2021/10/16 09:40:41;;;;;;;9.02;4.95;;;;;;;14.07;86.11;99723.59;5091375;28;20032;-19
2021/10/16 09:43:17;;;;;;;8.40;4.38;;;;;;;14.14;87.37;99711.88;5109185;28;20106;-19
2021/10/16 09:45:42;;;;;;;9.52;4.63;;;;;;;14.44;86.14;99733.69;5109605;28;20035;-19
2021/10/16 09:48:10;;;;;;;10.88;5.82;;;;;;;14.63;86.13;99717.25;5091162;28;20036;-20
2021/10/16 09:50:35;;;;;;;9.17;4.90;;;;;;;15.00;85.57;99729.94;5109290;28;20035;-19
2021/10/16 09:53:01;;;;;;;9.02;4.45;;;;;;;15.06;82.94;99728.91;5108825;28;20278;-20
2021/10/16 09:55:27;;;;;;;8.98;4.70;;;;;;;14.57;82.72;99726.34;5091482;28;20471;-21
2021/10/16 09:57:52;;;;;;;8.68;4.93;;;;;;;14.46;84.42;99738.78;5109596;28;20055;-20
2021/10/16 10:00:18;;;;;;;9.05;5.35;;;;;;;14.42;85.98;99734.97;5109638;28;20074;-19
2021/10/16 10:02:50;;;;;;;8.77;5.43;;;;;;;14.44;85.12;99738.22;5109177;28;20401;-19
2021/10/16 10:05:15;;;;;;;9.60;5.30;;;;;;;14.24;85.71;99749.53;5109397;28;20038;-19
2021/10/16 10:07:41;;;;;;;9.90;4.65;;;;;;;14.25;85.43;99740.44;5074389;28;20047;-20
2021/10/16 10:10:07;;;;;;;9.73;4.80;;;;;;;13.96;85.75;99743.31;5091085;28;20032;-20
2021/10/16 10:12:35;;;;;;;9.63;5.07;;;;;;;13.91;87.83;99748.59;5109171;28;20472;-19
2021/10/16 10:15:01;;;;;;;8.55;5.40;;;;;;;14.01;89.07;99743.38;5109312;28;20032;-19
2021/10/16 10:17:30;;;;;;;13.00;5.80;;;;;;;14.27;87.74;99747.16;5090845;28;20115;-19
2021/10/16 10:20:14;;;;;;;9.10;4.80;;;;;;;14.20;87.94;99735.84;5074608;28;20028;-20
2021/10/16 10:22:46;;;;;;;8.77;5.32;;;;;;;13.96;89.01;99737.97;5109147;28;20051;-19
2021/10/16 10:25:23;;;;;;;9.85;5.47;;;;;;;14.10;89.51;99759.00;5091844;28;20511;-20
2021/10/16 10:27:49;;;;;;;9.25;5.13;;;;;;;13.80;90.06;99749.53;5090763;28;20031;-19
2021/10/16 10:30:36;;;;;;;13.75;5.63;;;;;;;13.72;90.80;99758.00;5109359;28;20448;-20
2021/10/16 10:33:16;;;;;;;9.23;5.20;;;;;;;13.79;91.81;99761.31;5108895;28;20526;-19
2021/10/16 10:36:00;;;;;;;12.68;6.10;;;;;;;13.99;90.12;99764.25;5108935;28;20338;-20
2021/10/16 10:38:33;;;;;;;16.27;7.32;;;;;;;13.92;91.28;99755.59;5110834;28;20076;-19
2021/10/16 10:41:03;;;;;;;8.50;5.03;;;;;;;13.85;89.99;99763.00;5094863;28;20023;-20
2021/10/16 10:43:41;;;;;;;12.88;5.90;;;;;;;13.76;91.03;99743.84;5094705;28;20031;-19
2021/10/16 10:46:13;;;;;;;10.88;6.05;;;;;;;13.84;92.27;99745.31;5077489;28;20028;-19
2021/10/16 10:48:45;;;;;;;12.98;7.45;;;;;;;13.95;91.53;99760.44;5112489;28;20128;-20
2021/10/16 10:51:32;;;;;;;14.40;9.38;;;;;;;14.12;91.97;99751.53;5112496;28;20540;-19
2021/10/16 10:54:21;;;;;;;9.37;5.63;;;;;;;13.86;92.62;99749.34;5095861;28;20051;-20
2021/10/16 10:56:52;;;;;;;15.30;9.02;;;;;;;13.95;92.75;99740.88;5095145;28;20039;-19
2021/10/16 10:59:19;;;;;;;12.02;8.30;;;;;;;14.27;92.97;99743.69;5112634;28;20023;-19
2021/10/16 11:01:45;;;;;;;49.38;20.17;;;;;;;14.18;91.59;99751.38;5112265;28;20043;-19
2021/10/16 11:04:30;;;;;;;39.70;14.13;;;;;;;14.00;92.21;99740.97;5088912;28;20487;-20
2021/10/16 11:06:58;;;;;;;42.92;13.20;;;;;;;13.85;93.39;99754.94;5068590;28;20471;-19
2021/10/16 11:09:23;;;;;;;55.05;16.88;;;;;;;13.85;93.83;99746.91;5071097;28;20029;-19
2021/10/16 11:11:49;;;;;;;37.38;11.77;;;;;;;13.91;92.23;99735.19;5070214;28;20036;-20
2021/10/16 11:14:15;;;;;;;25.42;9.88;;;;;;;14.16;92.20;99741.94;5070472;28;20115;-20
2021/10/16 11:17:00;;;;;;;16.55;8.70;;;;;;;14.04;92.95;99750.13;5070910;28;20119;-19
2021/10/16 11:19:25;;;;;;;11.98;6.80;;;;;;;13.91;93.56;99737.06;5054701;28;20027;-20
2021/10/16 11:21:55;;;;;;;24.83;9.48;;;;;;;13.74;94.79;99739.81;5053749;28;20094;-20
2021/10/16 11:24:20;;;;;;;15.27;7.57;;;;;;;13.91;95.51;99751.28;5071445;28;20028;-20
2021/10/16 11:26:57;;;;;;;19.48;8.30;;;;;;;14.16;94.65;99745.44;5071263;28;20478;-21
2021/10/16 11:29:31;;;;;;;13.43;7.25;;;;;;;14.23;93.57;99747.94;5071319;28;20028;-19
2021/10/16 11:32:16;;;;;;;16.65;7.57;;;;;;;14.40;92.94;99759.38;5053653;28;20402;-19